This is the latest recevied weather packets stored in our database for station/object K0BL. If no packets are shown the sender has not sent any weather packets the latest 10 day(s).
| Time | Temp. | Humidity | Pressure | Rain* | Wind** | Luminosity | Snow |
|---|---|---|---|---|---|---|---|
| 1778145528 | 2.78° C | 87% | 1012.4 hPa | 0 mm | - | 0 W/m² | - |
| 1778145226 | 2.22° C | 87% | 1012.4 hPa | 0 mm | - | 0 W/m² | - |
| 1778143719 | 2.78° C | 86% | 1012.4 hPa | 0 mm | - | 0 W/m² | - |
| 1778143120 | 2.78° C | 87% | 1012.5 hPa | 0 mm | - | 0 W/m² | - |
| 1778141014 | 2.78° C | 89% | 1012.7 hPa | 0 mm | - | 0 W/m² | - |
| 1778140106 | 2.22° C | 91% | 1012.8 hPa | 0 mm | - | 0 W/m² | - |
| 1778139199 | 2.22° C | 89% | 1013 hPa | 0 mm | - | 0 W/m² | - |
| 1778138599 | 2.78° C | 88% | 1013 hPa | 0 mm | - | 0 W/m² | - |
| 1778137097 | 2.78° C | 88% | 1013.3 hPa | 0 mm | - | 0 W/m² | - |
| 1778135292 | 2.78° C | 88% | 1013.5 hPa | 0 mm | - | 0 W/m² | - |
| 1778134689 | 3.33° C | 88% | 1013.6 hPa | 0 mm | - | 0 W/m² | - |
| 1778134389 | 3.33° C | 87% | 1013.6 hPa | 0 mm | - | 0 W/m² | - |
| 1778130483 | 4.44° C | 81% | 1014 hPa | 0 mm | - | 0 W/m² | - |
| 1778130184 | 4.44° C | 80% | 1014 hPa | 0 mm | - | 0 W/m² | - |
| 1778129881 | 4.44° C | 81% | 1014 hPa | 0 mm | - | 0 W/m² | - |
| 1778119968 | 8.33° C | 63% | 1014 hPa | 0 mm | - | 0 W/m² | - |
| 1778119068 | 8.89° C | 57% | 1013.8 hPa | 0 mm | - | 0 W/m² | - |
| 1778118465 | 9.44° C | 55% | 1013.8 hPa | 0 mm | - | 0 W/m² | - |
| 1778112455 | 13.89° C | 36% | 1013.6 hPa | 0 mm | - | 77 W/m² | - |
| 1778110955 | 14.44° C | 36% | 1013.7 hPa | 0 mm | - | 133 W/m² | - |
| 1778107350 | 13.89° C | 37% | 1014 hPa | 0 mm | - | 196 W/m² | - |
| 1778106448 | 13.89° C | 38% | 1014.1 hPa | 0 mm | - | 137 W/m² | - |
| 1778105244 | 13.89° C | 38% | 1014 hPa | 0 mm | - | 142 W/m² | - |
| 1778098638 | 13.33° C | 40% | 1014.8 hPa | 0 mm | - | 362 W/m² | - |
| 1778097731 | 13.33° C | 40% | 1014.9 hPa | 0 mm | - | 307 W/m² | - |
* Rain latest hour (hover to see other rain measurements)
** Current wind speed in m/s (hover to see current wind gust speed)